Date,TemperatureHighF,TemperatureAvgF,TemperatureLowF,DewpointHighF,DewpointAvgF,DewpointLowF,HumidityHigh,HumidityAvg,HumidityLow,PressureMaxIn,PressureMinIn,WindSpeedMaxMPH,WindSpeedAvgMPH,GustSpeedMaxMPH,PrecipitationSumIn
2013-1-1,35.8,33.4,29.7,33.9,28.8,19.1,99,84,55,30.00,29.91,0,0,0,0.28
2013-1-2,31.1,26.8,23.0,22.9,13.1,8.1,76,56,41,30.14,29.97,0,0,0,0.28
2013-1-3,35.6,27.1,19.1,16.9,14.7,11.3,86,61,42,30.17,30.09,12,1,12,0.28
2013-1-4,33.8,29.6,27.7,17.9,16.2,13.1,66,57,49,30.20,30.14,13,1,13,0.28
2013-1-5,38.3,31.3,24.8,20.4,17.5,15.9,73,57,42,30.32,30.11,0,0,0,0.28
2013-1-6,39.6,35.9,32.9,30.4,22.1,17.7,81,57,49,30.14,29.97,0,0,0,0.28
2013-1-7,34.6,31.1,24.7,31.6,21.3,16.5,92,67,51,30.41,30.14,4,0,4,0.28
2013-1-8,49.0,34.0,21.6,25.3,20.3,16.7,85,60,37,30.29,30.20,12,1,12,0.04
2013-1-9,47.3,39.5,29.0,46.7,33.0,20.9,100,78,52,30.44,30.20,9,1,9,0.04
2013-1-10,45.5,37.2,28.8,41.6,32.4,26.6,100,85,57,30.53,30.17,8,1,8,0.04
2013-1-11,60.8,52.5,38.3,56.3,44.5,25.7,100,76,49,30.17,29.94,15,1,15,0.12
2013-1-12,66.6,60.1,54.9,56.3,52.5,46.4,100,78,54,30.06,29.91,10,1,10,0.04
2013-1-13,65.9,61.2,54.4,58.8,48.4,44.9,98,64,48,29.97,29.85,10,1,10,0.24
2013-1-14,59.4,44.3,35.3,58.8,35.9,22.9,99,73,51,30.26,29.88,8,1,8,0.04
2013-1-15,35.8,32.7,30.1,34.0,25.4,19.9,100,75,62,30.26,29.97,10,1,10,0.39
2013-1-16,38.7,36.4,34.2,38.5,35.7,31.5,100,97,86,30.00,29.79,9,1,9,0.28
2013-1-17,37.3,34.2,30.6,31.5,25.7,21.4,87,71,54,30.11,30.00,0,0,0,0.04
2013-1-18,32.9,28.5,21.6,26.1,11.4,6.3,83,49,38,30.41,30.11,11,3,11,0.04
2013-1-19,53.1,42.4,27.0,21.5,15.1,8.0,48,33,28,30.23,29.88,17,5,17,0.04
2013-1-20,46.3,39.1,27.2,25.0,14.6,4.8,48,37,29,30.06,29.85,9,0,9,0.04
2013-1-21,33.1,25.9,14.0,17.1,7.8,-3.8,76,46,38,30.03,29.82,15,4,15,0.04
2013-1-22,18.2,12.0,7.2,-1.0,-6.6,-9.7,45,42,36,30.17,30.00,15,4,15,0.04
2013-1-23,19.8,14.2,7.6,10.5,-3.7,-12.2,73,45,37,30.20,29.97,13,2,13,0.04
2013-1-24,27.5,18.2,11.7,12.7,4.2,-2.9,80,56,33,30.41,29.97,10,1,10,0.04
2013-1-25,22.0,17.4,10.1,17.6,6.0,-3.0,85,61,44,30.41,29.91,10,2,10,0.04
2013-1-26,31.7,25.4,21.2,21.4,17.5,9.6,86,72,54,30.35,30.03,8,1,8,0.04
2013-1-27,40.5,28.2,17.1,18.2,12.3,8.1,71,52,36,30.41,30.20,8,2,8,0.04
2013-1-28,52.9,44.1,30.8,52.9,41.5,16.9,100,91,55,30.23,30.00,12,3,12,0.51
2013-1-29,66.8,58.2,52.4,56.9,48.9,40.4,100,75,43,30.03,29.79,15,2,15,0.04
2013-1-30,71.3,59.2,48.2,56.8,48.7,39.7,97,71,38,29.79,29.29,30,2,30,0.98
2013-1-31,48.2,29.9,23.8,43.6,18.3,5.5,84,63,42,29.82,29.26,18,6,18,0.04
2013-2-1,25.2,16.6,9.2,21.6,4.2,-3.3,86,58,44,30.26,29.76,15,4,15,0.04
2013-2-2,27.2,18.9,7.4,24.5,8.3,-5.0,91,64,43,30.26,29.91,14,3,14,0.04
2013-2-3,32.0,26.0,20.2,24.5,17.9,6.2,89,72,54,30.00,29.76,0,0,0,0.04
2013-2-4,34.9,26.6,19.8,34.9,16.5,7.0,100,67,41,30.03,29.79,11,1,11,0.04
2013-2-5,38.7,35.5,33.3,37.1,32.8,24.9,100,91,63,29.88,29.76,11,1,11,0.20
2013-2-6,36.5,32.6,27.4,33.3,26.8,21.8,97,80,56,30.23,29.88,5,0,5,0.04
2013-2-7,49.5,36.6,25.0,29.3,25.6,22.5,98,68,37,30.20,29.91,8,2,8,0.04
2013-2-8,41.6,35.9,27.2,40.7,27.0,13.0,98,70,55,30.11,29.76,13,0,13,0.08
2013-2-9,35.6,28.8,22.7,16.1,13.2,9.3,68,53,40,30.29,30.11,8,0,8,0.04
2013-2-10,55.1,36.1,19.6,34.3,18.2,12.7,84,53,27,30.26,29.91,10,1,10,0.00
2013-2-11,62.6,50.8,39.6,45.3,32.2,18.4,88,53,26,29.91,29.67,26,4,26,0.04
2013-2-12,49.5,41.1,32.8,22.4,18.1,12.6,51,40,29,30.03,29.85,14,2,14,0.00
2013-2-13,42.5,34.4,27.7,34.4,23.6,14.9,98,67,41,29.88,29.58,10,1,10,0.00
2013-2-14,44.6,36.5,29.0,29.7,24.7,22.2,87,64,43,29.94,29.82,15,1,15,0.08
2013-2-15,40.7,36.8,32.6,35.0,28.2,20.2,98,73,44,30.00,29.88,5,0,5,0.12
2013-2-16,32.6,27.9,24.3,29.4,19.2,11.2,90,71,42,29.97,29.91,0,0,0,0.00
2013-2-17,23.4,20.1,16.2,6.7,3.2,-0.3,53,47,44,30.17,30.03,9,2,9,0.00
2013-2-18,48.4,31.5,10.6,25.3,11.9,-2.0,60,45,34,30.20,29.85,12,1,12,0.00
2013-2-19,45.0,38.6,27.0,37.2,25.0,12.2,86,60,38,29.91,29.64,18,3,18,0.08
2013-2-20,28.6,23.4,20.5,13.6,8.6,2.6,67,53,44,30.14,29.91,13,2,13,0.00
2013-2-21,30.8,23.7,20.2,12.7,9.3,4.6,68,54,43,30.23,30.11,10,2,10,0.00
2013-2-22,47.3,37.2,22.7,37.1,26.5,10.1,90,65,50,30.14,29.88,10,1,10,0.00
2013-2-23,55.4,43.5,34.9,37.7,32.3,27.0,89,67,38,29.91,29.76,12,1,12,0.00
2013-2-24,35.6,31.3,25.0,27.8,19.8,12.4,79,62,51,30.09,29.79,11,1,11,0.00
2013-2-25,43.4,33.0,22.9,19.6,16.4,12.6,74,52,38,30.11,29.97,13,3,13,0.00
2013-2-26,42.3,38.0,29.0,39.4,24.0,11.6,97,59,39,29.97,29.49,17,1,17,0.47
2013-2-27,42.8,39.9,34.2,42.8,34.7,28.7,100,82,61,29.67,29.52,0,0,0,0.24
2013-2-28,34.9,33.8,32.8,34.4,29.4,23.9,98,84,68,29.76,29.61,0,0,0,0.00
2013-3-1,36.2,32.2,29.0,33.4,22.9,16.3,96,69,50,29.88,29.76,6,0,6,0.00
2013-3-2,32.0,28.1,26.1,22.4,16.3,11.6,76,61,45,29.88,29.85,6,1,6,0.00
2013-3-4,38.9,31.9,26.6,14.1,10.6,8.1,55,41,33,30.00,29.97,8,1,8,0.00
2013-3-5,51.5,36.8,25.6,33.6,20.0,11.5,93,53,31,30.00,29.55,18,3,18,0.08
2013-3-6,39.8,35.8,34.0,36.1,32.1,27.2,100,87,62,30.06,29.55,9,0,14,0.35
2013-3-7,43.7,36.7,33.5,33.5,26.5,19.9,93,69,42,30.20,30.03,13,1,13,0.00
2013-3-8,38.3,34.1,29.5,27.5,20.6,16.0,78,58,46,30.32,30.20,9,0,9,0.00
2013-3-9,56.9,41.4,24.8,27.6,22.6,16.7,91,53,27,30.32,30.11,8,1,8,0.00
2013-3-10,70.7,55.5,40.9,32.2,24.7,15.3,48,31,24,30.11,29.94,15,2,15,0.00
2013-3-11,63.7,57.6,52.9,50.4,28.4,21.6,91,34,26,29.97,29.70,22,1,22,0.08
2013-3-12,53.8,41.8,35.6,53.0,33.6,21.0,97,74,53,29.97,29.73,8,1,8,0.12
2013-3-13,39.4,33.0,27.7,33.7,22.2,12.8,98,66,40,30.09,29.88,15,3,15,0.12
2013-3-14,41.2,31.6,25.2,17.2,12.6,9.6,64,46,31,30.17,30.06,15,2,15,0.12
2013-3-15,52.6,39.6,27.0,28.1,19.4,9.5,53,44,36,30.09,29.76,15,2,15,0.12
2013-3-16,59.2,48.7,41.2,46.7,40.4,27.5,99,74,49,29.88,29.55,11,2,11,0.04
2013-3-17,41.2,35.7,31.1,35.5,22.4,15.8,88,60,42,30.09,29.88,11,1,11,0.04
2013-3-18,48.6,40.4,34.6,41.2,32.4,18.6,91,74,51,30.03,29.67,14,1,14,0.79
2013-3-19,49.9,42.3,33.8,49.9,23.5,7.1,100,51,27,29.94,29.64,20,1,20,0.04
2013-3-20,45.5,36.3,29.0,15.6,10.4,5.9,41,34,30,29.94,29.73,20,2,20,0.04
2013-3-21,30.8,26.3,21.1,8.4,5.2,1.6,54,40,33,29.88,29.79,12,2,12,0.00
2013-3-22,43.6,31.7,23.6,16.4,10.7,6.8,53,42,31,29.94,29.88,9,1,16,0.00
2013-3-23,51.5,36.7,22.5,19.8,14.4,8.4,69,42,28,29.97,29.88,11,2,11,0.00
2013-3-24,44.1,34.1,27.5,35.2,21.7,14.9,97,63,35,29.91,29.44,15,3,15,0.04
2013-3-25,39.1,35.5,33.5,35.6,31.6,27.6,100,86,65,29.70,29.41,0,0,0,0.39
2013-3-26,46.1,37.8,34.4,35.4,29.3,20.3,99,75,40,30.03,29.70,8,0,8,0.04
2013-3-27,44.8,36.2,32.2,32.9,24.1,16.7,93,64,39,30.11,30.03,12,1,12,0.04
2013-3-28,44.3,37.8,33.5,22.6,19.9,17.6,56,49,39,30.20,30.09,9,0,9,0.04
2013-3-29,54.4,43.9,35.1,27.5,21.3,15.6,70,42,28,30.20,30.09,11,1,11,0.04
2013-3-30,58.0,44.8,30.2,26.1,20.6,15.3,67,39,27,30.17,30.03,9,2,9,0.00
2013-4-1,49.5,40.1,33.3,22.2,12.8,7.9,38,32,29,29.97,29.85,13,2,13,0.16
2013-4-2,45.0,34.9,25.7,15.4,10.3,5.9,45,36,28,30.11,29.97,12,1,12,0.00
2013-4-3,48.1,35.2,24.1,17.0,11.1,2.1,56,38,27,30.29,30.11,12,2,12,0.00
2013-4-4,56.7,39.9,20.9,23.1,13.9,1.3,59,35,27,30.29,29.94,8,2,8,0.00
2013-4-5,62.6,47.7,33.5,30.1,20.9,12.1,61,36,26,30.09,29.88,13,3,13,0.00
2013-4-6,62.3,46.1,26.8,26.8,19.5,12.4,60,36,26,30.20,29.97,11,2,11,0.00
2013-4-7,72.0,61.4,51.7,43.5,30.9,21.6,57,32,26,29.97,29.88,19,4,19,0.00
2013-4-8,76.5,64.6,50.4,44.9,39.1,36.3,76,41,25,30.00,29.88,14,3,14,0.00
2013-4-9,81.2,72.0,58.9,47.2,43.5,40.1,54,37,30,30.06,29.91,13,4,13,0.00
2013-4-10,85.3,73.0,62.8,50.7,45.1,39.6,64,38,26,29.97,29.79,17,5,17,0.00
2013-4-11,82.4,69.3,56.2,52.5,47.0,41.6,83,48,26,29.88,29.55,10,2,10,0.00
2013-4-12,71.6,61.0,49.7,59.2,44.0,25.9,93,58,28,29.82,29.52,16,2,16,0.51
2013-4-13,61.9,50.7,39.4,30.9,26.4,21.9,57,40,26,29.94,29.82,15,4,15,0.00
2013-4-14,65.9,52.1,35.6,33.0,28.9,24.2,77,44,28,30.09,29.94,10,2,10,0.00
2013-4-15,66.4,61.3,56.5,43.2,38.9,31.4,61,44,31,30.09,29.94,17,0,17,0.00
2013-4-16,80.1,66.8,54.5,62.0,47.1,42.4,96,53,31,30.17,30.00,19,3,19,0.63
2013-4-17,69.5,63.4,59.2,63.9,58.1,52.9,100,84,57,30.17,30.06,9,1,9,0.00
2013-4-18,85.5,72.3,59.8,60.2,49.7,43.8,94,49,26,30.06,29.79,13,3,17,0.00
2013-4-19,72.5,60.5,45.0,58.8,43.9,26.2,86,56,39,29.85,29.52,15,2,15,0.12
2013-4-20,56.9,44.5,36.4,28.3,21.3,15.4,60,41,27,30.32,29.85,18,4,18,0.00
2013-4-21,56.2,43.4,28.6,24.1,19.8,15.8,76,41,27,30.47,30.32,14,3,14,0.00
2013-4-22,64.3,52.2,40.9,29.3,22.5,15.4,39,31,25,30.35,30.17,15,4,15,0.00
2013-4-23,73.3,57.8,39.1,36.2,28.9,22.7,57,35,23,30.20,29.94,9,1,9,0.00
2013-4-24,69.1,57.7,41.9,56.9,44.6,30.6,80,63,34,30.11,29.76,17,4,17,0.12
2013-4-25,58.9,49.0,35.3,35.3,26.2,20.9,88,44,27,30.26,30.11,10,1,10,0.00
2013-4-26,64.3,50.8,37.1,36.8,28.7,21.6,85,46,26,30.38,30.26,10,2,10,0.00
2013-4-27,75.8,58.0,36.7,37.8,30.5,23.5,65,38,23,30.32,30.11,10,1,10,0.00
2013-4-28,64.6,58.9,54.4,53.4,41.7,32.3,91,55,34,30.11,29.91,13,1,13,0.20
2013-4-29,68.0,59.5,53.3,54.4,46.2,41.4,88,62,46,30.00,29.91,10,1,10,0.00
2013-4-30,75.8,63.5,53.3,56.3,46.7,39.9,100,59,31,30.11,29.97,15,3,15,0.00
2013-5-1,79.0,65.0,52.4,48.1,40.5,27.4,81,44,25,30.23,30.11,14,3,14,0.00
2013-5-2,81.2,65.4,49.7,43.6,32.9,24.8,48,30,23,30.26,30.11,16,3,16,0.00
2013-5-3,77.4,63.4,46.6,38.9,32.8,25.1,57,33,23,30.17,30.09,13,2,13,0.00
2013-5-4,72.9,59.5,46.6,35.7,30.3,18.9,46,33,24,30.14,30.00,16,2,16,0.00
2013-5-5,72.9,60.7,48.2,34.4,30.3,24.0,54,33,23,30.09,29.94,18,4,18,0.00
2013-5-6,69.1,58.1,50.6,58.9,42.7,29.5,100,59,37,30.03,29.91,16,2,16,0.08
2013-5-7,63.2,60.0,57.1,61.2,57.2,49.6,100,91,67,29.94,29.88,11,0,11,0.24
2013-5-8,72.0,61.6,54.9,59.0,48.7,37.4,100,67,32,29.94,29.85,10,1,11,0.24
2013-5-9,77.8,63.0,54.2,60.2,52.1,42.9,100,71,31,30.00,29.88,11,1,11,0.00
2013-5-10,79.2,65.2,57.6,61.2,54.4,47.5,94,71,34,30.00,29.82,18,0,18,0.31
2013-5-11,67.3,62.4,52.6,65.5,56.7,43.4,100,83,57,29.85,29.76,8,0,8,1.22
2013-5-12,58.7,51.0,42.8,50.4,29.8,20.0,91,47,29,30.03,29.82,12,1,12,0.00
2013-5-13,56.3,45.3,36.2,34.5,26.5,21.5,87,50,30,30.11,30.03,13,1,13,0.00
2013-5-14,66.6,50.4,33.5,35.1,30.6,25.4,90,51,27,30.14,29.88,11,1,11,0.00
2013-5-15,87.3,71.7,56.2,52.2,45.4,30.3,60,40,28,29.88,29.73,13,3,13,0.00
2013-5-16,73.8,66.5,61.9,64.4,57.3,42.7,98,75,35,29.97,29.82,10,1,10,0.67
2013-5-17,84.4,71.6,63.5,66.3,53.4,38.0,100,60,23,30.09,29.97,8,1,8,0.00
2013-5-18,84.1,68.8,57.8,63.0,55.7,47.6,92,67,33,30.09,30.00,11,1,11,0.00
2013-5-19,80.5,69.4,61.7,62.0,57.6,53.3,95,68,41,30.06,29.94,8,0,8,0.00
2013-5-20,85.3,73.2,62.3,66.7,59.1,54.0,90,64,40,30.03,29.94,10,1,10,0.00
2013-5-21,86.8,75.6,66.6,68.1,61.9,55.8,97,66,39,29.97,29.85,10,1,10,0.00
2013-5-22,87.5,71.8,65.0,65.7,59.3,52.1,96,68,35,29.91,29.82,12,1,12,0.63
2013-5-23,79.6,67.8,61.6,67.8,61.8,49.1,100,84,39,29.88,29.79,9,0,9,0.24
2013-5-24,61.6,48.9,38.9,58.4,38.1,26.5,92,69,37,30.23,29.85,11,2,11,0.08
2013-5-25,65.2,49.4,33.8,39.5,32.1,27.7,98,56,30,30.29,30.17,9,1,9,0.00
2013-5-26,70.7,54.9,37.4,37.1,32.0,26.7,87,46,24,30.26,30.17,9,1,9,0.00
2013-5-27,65.9,54.3,43.2,51.8,43.5,33.0,92,69,38,30.23,30.06,6,1,6,0.00
2013-5-28,82.6,70.4,57.6,56.4,51.5,44.1,79,52,36,30.09,30.00,15,2,15,0.00
2013-5-29,86.6,73.7,63.4,59.1,54.0,49.0,75,52,31,30.11,30.03,11,2,11,0.00
2013-5-30,84.8,72.4,64.1,62.7,57.5,54.9,79,61,39,30.11,30.06,4,0,4,0.00
2013-5-31,89.5,76.7,65.2,64.9,56.8,50.9,87,54,29,30.11,30.00,8,1,8,0.00
2013-6-1,89.1,76.7,67.3,66.1,59.7,53.2,93,59,32,30.03,29.85,12,1,12,0.00
2013-6-2,77.9,71.3,65.2,68.1,60.3,52.7,94,70,51,29.88,29.82,11,2,11,0.08
2013-6-3,72.9,65.6,56.7,66.7,58.4,48.7,98,79,49,30.03,29.85,9,2,9,0.08
2013-6-4,74.2,61.2,48.4,55.4,42.4,35.2,100,55,28,30.11,30.00,11,2,12,0.08
2013-6-5,86.0,65.7,51.1,63.9,53.1,43.0,93,67,31,30.09,29.88,14,1,14,0.04
2013-6-6,72.7,68.1,65.3,68.9,64.0,58.1,98,87,63,29.94,29.73,8,0,8,0.43
2013-6-7,69.5,67.0,62.1,69.2,65.0,57.5,100,94,75,29.82,29.73,7,0,7,0.12
2013-6-8,73.8,64.8,59.0,59.1,55.2,49.1,92,73,46,30.09,29.82,6,0,6,0.00
2013-6-9,86.8,72.8,61.6,66.6,58.5,48.5,100,66,30,30.11,30.00,8,1,8,0.00
2013-6-10,79.0,69.8,66.1,67.5,63.6,55.8,95,81,52,30.03,29.79,12,1,12,0.12
2013-6-11,77.4,68.2,63.5,65.3,61.9,55.9,96,82,52,29.91,29.82,9,1,9,0.00
2013-6-12,88.6,75.8,66.1,70.4,64.4,58.3,94,71,39,29.94,29.79,10,1,10,0.00
2013-6-13,75.1,67.7,60.7,71.2,65.7,57.3,100,93,79,29.85,29.61,13,0,13,2.60
2013-6-14,75.8,65.1,58.9,63.0,55.9,46.9,100,75,43,30.03,29.79,13,1,13,0.00
2013-6-15,81.0,67.5,55.8,59.8,52.0,37.5,99,63,28,30.11,30.00,6,0,6,0.00
2013-6-16,74.5,68.0,63.2,65.8,60.4,53.9,90,77,61,30.03,29.94,11,1,11,0.00
2013-6-17,83.7,72.9,67.3,67.4,63.5,57.7,95,74,45,29.97,29.91,6,0,6,0.00
2013-6-18,75.1,69.6,67.0,71.6,65.1,55.6,100,86,53,29.91,29.85,8,0,8,0.12
2013-6-19,79.6,68.7,60.8,66.4,54.2,46.1,96,63,33,30.11,29.91,11,2,11,0.00
2013-6-20,85.5,70.2,56.3,58.6,52.6,46.1,94,58,29,30.20,30.11,8,0,8,0.00
2013-6-21,88.6,70.2,59.4,61.1,56.0,48.0,95,65,28,30.23,30.14,6,0,6,0.00
2013-6-22,89.1,75.4,63.0,66.1,60.3,55.1,97,63,34,30.20,30.06,8,1,8,0.00
2013-6-23,89.8,76.9,66.4,65.8,61.8,55.0,89,63,33,30.17,30.06,8,0,8,0.00
2013-6-24,71.5,69.8,68.9,66.4,65.7,64.6,90,87,81,30.11,30.11,0,0,0,0.00
2013-6-26,80.3,74.7,70.7,72.9,69.2,65.2,95,83,63,29.94,29.82,6,1,6,0.28
2013-6-27,73.4,71.5,69.5,73.4,70.2,64.8,100,96,85,29.82,29.67,6,0,6,0.91
2013-6-28,76.1,71.2,68.0,73.4,70.1,65.6,100,97,77,29.67,29.58,6,0,6,0.51
2013-6-29,82.1,72.9,67.1,69.0,64.0,54.1,100,76,43,29.70,29.58,8,1,8,0.12
2013-6-30,88.7,75.8,65.5,67.5,62.1,53.4,100,67,33,29.82,29.67,9,1,9,0.00
2013-7-1,85.3,74.1,69.5,72.4,66.5,56.1,100,80,41,29.94,29.79,5,0,5,0.71
2013-7-2,83.7,75.8,70.7,76.0,66.6,57.1,100,76,43,30.06,29.94,8,1,8,0.35
2013-7-3,89.1,76.4,69.3,68.2,62.8,57.4,81,64,38,30.17,30.06,7,0,7,0.00
2013-7-4,89.6,77.3,69.3,70.6,63.8,55.5,93,66,33,30.20,30.09,6,1,6,0.00
2013-7-5,87.5,76.9,68.9,71.2,65.1,57.1,94,69,39,30.17,30.11,11,0,11,0.00
2013-7-6,92.0,79.5,69.7,73.0,66.1,59.4,98,67,37,30.17,30.03,8,0,8,0.00
2013-7-7,82.3,73.2,69.5,72.8,67.1,60.0,99,82,50,30.11,30.03,8,0,8,0.39
2013-7-8,84.6,73.4,65.7,70.6,65.6,59.3,99,79,46,30.14,30.06,8,1,8,0.00
2013-7-9,74.3,72.3,71.3,73.6,70.4,67.1,100,94,82,30.11,30.09,6,0,6,0.04
2013-7-12,77.2,68.4,62.3,68.8,62.6,54.8,100,84,48,30.09,29.97,15,2,15,0.55
2013-7-13,85.5,73.9,67.3,71.8,64.9,55.9,100,76,40,30.20,30.06,10,2,10,0.04
2013-7-14,91.4,79.8,70.2,69.0,61.8,53.9,86,57,30,30.26,30.20,8,0,8,0.04
2013-7-15,92.5,79.1,67.9,69.7,63.8,57.4,91,63,33,30.32,30.23,6,0,6,0.04
2013-7-16,91.4,78.2,69.3,72.7,68.7,61.6,97,76,40,30.32,30.23,8,0,8,0.04
2013-7-17,92.2,78.4,72.2,76.0,70.4,61.9,100,80,38,30.29,30.14,9,1,9,0.04
2013-7-18,93.8,80.8,70.7,75.9,69.6,60.0,98,73,33,30.17,30.03,6,0,6,0.04
2013-7-19,92.5,77.8,72.2,76.1,72.3,59.5,99,85,43,30.06,29.91,10,1,10,0.28
2013-7-20,86.8,74.4,70.9,73.1,70.6,60.8,100,89,51,29.97,29.85,15,1,15,0.55
2013-7-21,82.6,74.7,70.9,74.3,70.3,62.0,100,87,57,29.97,29.91,4,0,4,0.04
2013-7-22,86.2,77.0,71.8,74.0,70.2,63.8,100,81,50,29.94,29.79,7,0,7,0.24
2013-7-23,85.3,75.6,68.4,75.2,67.7,58.4,100,79,43,29.79,29.73,11,1,13,0.59
2013-7-24,73.6,67.6,59.6,70.9,57.8,46.9,100,73,45,29.97,29.76,16,2,16,0.00
2013-7-25,77.2,65.8,58.1,59.4,52.5,43.2,100,67,33,30.06,29.94,10,2,11,0.00
2013-7-26,82.8,68.2,55.6,57.5,52.1,45.0,97,62,29,30.09,30.00,6,0,6,0.00
2013-7-27,75.2,68.1,61.6,72.1,64.7,55.9,100,89,65,30.00,29.85,8,0,8,0.35
2013-7-28,79.4,69.4,59.4,69.1,57.8,47.0,100,70,36,30.03,29.85,12,1,12,0.47
2013-7-29,77.0,65.8,55.4,58.8,52.3,43.4,95,65,33,30.17,30.03,8,0,8,0.00
2013-7-30,81.7,69.8,60.5,64.8,56.2,48.1,97,65,34,30.20,30.11,6,0,8,0.00
2013-7-31,75.8,67.8,63.4,68.3,63.4,57.1,99,87,53,30.14,29.97,6,0,6,0.04
2013-8-1,82.8,71.6,66.8,71.3,66.5,56.5,100,86,46,29.97,29.85,8,0,8,0.31
2013-8-2,82.6,71.7,63.7,68.1,58.8,48.0,100,68,31,30.00,29.91,8,1,8,0.00
2013-8-3,72.9,68.7,66.1,69.3,65.2,57.9,100,89,63,30.00,29.94,6,0,6,0.16
2013-8-4,78.3,69.0,59.8,68.9,56.9,43.9,100,70,32,30.06,29.97,10,1,10,0.00
2013-8-5,78.7,66.1,56.2,58.8,52.9,42.2,99,67,30,30.11,30.00,6,0,6,0.00
2013-8-6,82.6,70.4,60.8,63.4,55.9,46.9,100,65,33,30.03,29.97,6,0,6,0.00
2013-8-7,88.2,75.3,65.2,71.2,66.0,58.8,99,76,41,30.00,29.91,13,1,13,0.00
2013-8-8,85.1,74.5,70.0,77.4,71.7,62.9,100,92,53,30.00,29.94,10,0,10,0.91
2013-8-9,80.5,76.3,74.2,78.1,75.1,70.5,100,96,77,30.03,29.91,6,0,6,0.35
2013-8-10,84.2,75.1,67.0,74.9,63.0,44.8,100,72,29,30.09,30.03,7,0,7,0.35
2013-8-11,86.9,74.0,65.7,70.3,63.1,51.4,100,73,32,30.11,30.00,6,0,6,0.35
2013-8-12,85.1,74.1,66.6,70.5,65.0,56.7,98,76,43,30.06,29.91,8,0,8,0.35
2013-8-13,80.1,71.1,60.8,72.7,64.5,46.0,100,81,52,29.94,29.82,9,1,9,0.35
2013-8-14,68.9,60.3,53.3,57.0,48.6,41.9,98,68,38,30.11,29.94,7,1,7,0.00
2013-8-15,75.1,62.1,53.3,58.2,50.9,40.2,100,72,32,30.17,30.06,5,0,6,0.00
2013-8-16,79.7,68.6,55.4,58.1,52.5,44.2,98,61,31,30.14,30.09,6,1,6,0.35
2013-8-17,78.1,67.4,58.7,61.2,53.0,44.0,100,64,32,30.20,30.14,8,1,8,0.35
2013-8-18,73.8,68.6,63.9,69.6,64.2,56.7,100,87,60,30.17,30.11,6,0,6,0.35
2013-8-19,79.6,72.3,66.2,75.2,67.3,56.4,100,86,47,30.11,30.06,6,0,6,0.35
2013-8-20,83.5,70.8,63.0,68.6,60.5,48.9,100,75,32,30.17,30.09,8,0,8,0.35
2013-8-21,85.0,71.6,63.0,71.1,64.7,56.8,100,82,46,30.17,30.06,6,1,6,0.35
2013-8-22,81.9,73.8,68.8,72.4,67.6,62.0,100,83,54,30.11,30.00,8,1,8,0.35
2013-8-23,76.5,71.2,64.3,73.4,64.3,49.3,100,81,42,30.11,29.97,13,1,13,0.35
2013-8-24,83.2,69.9,60.7,66.6,57.6,46.8,100,70,30,30.26,30.11,6,0,6,0.35
2013-8-25,82.4,69.6,59.8,62.2,56.6,47.8,96,67,32,30.35,30.23,8,0,8,0.35
2013-8-26,83.5,71.0,61.7,64.3,60.0,53.9,99,72,40,30.26,30.06,8,1,8,0.35
2013-8-27,79.7,72.8,67.9,74.6,69.3,62.9,100,89,73,30.06,29.97,6,1,6,0.35
2013-8-28,79.7,76.1,72.4,79.6,75.7,71.8,100,99,94,29.97,29.82,8,0,8,0.00
2013-8-29,85.1,77.0,71.5,77.4,68.7,57.2,100,79,40,30.00,29.88,10,1,10,4.88
2013-8-30,86.6,76.1,68.2,72.6,67.0,59.1,100,77,40,30.03,29.85,6,1,6,0.00
2013-8-31,84.2,75.4,71.3,73.6,67.8,58.4,100,80,43,29.88,29.82,8,1,8,0.00
2013-9-1,82.8,74.0,70.0,72.9,67.3,60.3,99,81,50,29.88,29.79,7,0,7,0.00
2013-9-2,81.9,73.7,68.4,72.6,69.1,61.2,100,87,51,29.85,29.76,7,0,9,1.06
2013-9-3,77.4,69.2,59.9,70.4,60.3,48.1,100,77,40,30.03,29.82,10,1,10,0.00
2013-9-4,76.9,64.9,56.3,62.8,54.5,47.0,100,73,36,30.11,30.03,8,0,8,0.00
2013-9-5,73.3,62.3,58.3,60.2,57.3,48.8,99,85,54,30.14,30.09,8,1,8,0.00
2013-9-6,74.2,61.3,52.4,54.0,46.6,37.9,100,64,28,30.20,30.11,9,2,9,0.00
2013-9-7,78.1,63.6,51.8,59.6,51.3,42.9,96,69,30,30.11,29.97,8,0,8,0.00
2013-9-8,82.3,70.0,62.1,67.4,60.6,56.0,95,74,43,30.03,29.94,9,1,9,0.00
2013-9-9,85.5,73.9,65.7,71.3,65.3,59.0,100,78,43,30.09,30.00,8,0,8,0.00
2013-9-10,86.8,76.4,69.5,73.4,67.4,62.7,93,75,48,30.17,30.06,8,1,8,0.00
2013-9-11,86.9,76.1,72.0,73.7,70.6,64.4,99,84,54,30.17,30.03,8,0,8,0.00
2013-9-12,82.8,72.9,69.7,73.0,69.6,59.2,99,90,51,30.03,29.82,11,1,11,0.12
2013-9-13,72.2,62.6,51.7,69.4,53.2,41.1,99,74,35,30.00,29.79,13,1,13,0.04
2013-9-14,66.8,55.3,48.4,53.0,43.6,34.5,96,69,34,30.14,30.00,8,0,8,0.00
2013-9-15,73.4,59.5,46.6,58.9,49.7,42.7,100,74,36,30.14,30.06,9,0,9,0.00
2013-9-16,67.5,61.8,57.1,61.9,55.4,44.9,100,82,48,30.23,30.03,11,1,11,0.28
2013-9-17,71.6,59.8,53.5,59.4,48.2,35.9,100,70,32,30.32,30.20,11,2,11,0.00
2013-9-18,71.3,61.2,49.1,61.9,50.7,41.8,96,71,39,30.20,30.09,6,0,6,0.00
2013-9-19,77.0,68.3,63.7,67.5,60.4,50.6,100,79,42,30.11,30.03,9,0,9,0.04
2013-9-20,76.0,69.4,63.0,71.7,66.6,61.0,100,91,65,30.03,29.85,8,0,8,0.20
2013-9-21,70.9,66.0,61.9,70.6,63.8,59.7,100,93,79,29.85,29.67,6,0,6,0.98
2013-9-22,66.1,59.4,50.4,63.4,52.3,40.3,100,80,43,30.00,29.79,6,0,8,0.00
2013-9-23,60.5,51.7,45.9,52.5,43.7,35.3,99,77,42,30.09,29.97,10,1,10,0.00
2013-9-24,68.8,54.4,43.2,52.9,46.0,39.6,100,77,37,30.06,29.94,6,1,6,0.00
2013-9-25,74.3,60.9,51.3,62.6,54.8,48.8,100,83,41,29.94,29.85,6,1,7,0.00
2013-9-26,74.5,63.5,55.6,66.2,52.7,39.8,100,74,31,30.06,29.91,11,1,11,0.00
2013-9-27,74.3,61.0,49.5,57.4,49.5,41.8,100,70,33,30.14,30.06,7,1,7,0.00
2013-9-28,74.0,61.7,52.7,59.2,49.0,41.2,99,67,34,30.23,30.11,8,1,8,0.00
2013-9-29,75.4,62.1,52.7,59.8,50.6,44.2,97,69,35,30.11,30.00,8,0,8,0.00
2013-9-30,69.3,61.8,56.3,61.4,57.8,54.2,98,87,63,30.06,29.97,4,0,4,0.00
2013-10-1,76.3,65.3,58.3,63.7,57.2,49.1,100,78,41,30.09,30.00,7,0,7,0.00
2013-10-2,79.9,67.2,59.2,64.9,58.8,51.9,100,78,40,30.11,30.06,8,1,8,0.00
2013-10-3,79.7,68.8,62.1,67.8,61.2,54.2,98,79,44,30.11,30.03,4,0,4,0.00
2013-10-4,80.1,70.7,66.2,68.6,63.1,54.2,100,80,43,30.11,30.03,8,0,8,0.00
2013-10-5,82.3,71.7,65.2,66.7,62.2,54.8,100,75,40,30.11,29.97,8,1,8,0.00
2013-10-6,85.3,73.7,65.7,64.7,55.5,48.1,88,57,29,30.00,29.79,12,2,12,0.00
2013-10-7,69.8,58.1,47.7,55.7,46.6,34.5,95,68,39,30.11,29.70,12,1,12,0.28
2013-10-8,66.1,53.0,42.3,51.3,41.9,35.1,100,71,33,30.23,30.09,12,2,12,0.00
2013-10-9,69.1,53.9,44.1,48.0,40.4,29.1,100,67,25,30.26,30.14,14,3,14,0.00
2013-10-10,69.3,58.0,49.3,52.5,43.8,33.1,81,60,40,30.17,30.03,10,1,10,0.00
2013-10-11,61.2,57.9,55.6,61.2,55.8,49.6,100,93,74,30.06,30.00,9,0,9,0.04
2013-10-12,73.3,64.5,59.8,62.3,56.8,50.6,100,78,46,30.11,30.00,11,1,11,0.00
2013-10-13,74.2,65.0,58.9,55.4,51.7,47.8,86,64,41,30.20,30.11,9,1,9,0.00
2013-10-14,65.9,61.7,59.8,60.6,57.6,54.1,98,87,69,30.23,30.14,0,0,0,0.00
2013-10-15,73.1,64.2,57.4,63.8,55.6,47.8,100,77,41,30.17,29.97,6,0,6,0.00
2013-10-16,70.7,62.8,55.8,60.3,49.2,38.7,88,62,44,29.97,29.88,8,0,8,0.00
2013-10-17,66.8,61.0,51.7,66.8,59.9,49.1,100,96,82,29.91,29.67,10,0,10,0.31
2013-10-18,61.9,52.3,44.8,50.5,39.7,31.6,98,66,34,30.03,29.91,8,1,8,0.04
2013-10-19,55.6,46.9,39.4,50.9,42.2,37.9,98,84,58,29.97,29.76,10,0,10,0.04
2013-10-20,57.8,47.9,41.6,43.4,35.2,28.4,99,66,34,30.03,29.94,10,1,10,0.04
2013-10-21,65.3,51.3,37.3,36.8,32.2,28.6,88,52,28,30.03,29.85,12,2,12,0.04
2013-10-22,54.0,48.5,39.4,46.9,33.6,25.1,88,58,37,29.94,29.82,9,1,9,0.12
2013-10-23,42.8,40.3,37.6,41.5,38.0,34.1,98,91,80,29.94,29.73,8,1,8,0.63
2013-10-24,43.2,38.5,34.7,39.3,33.7,24.2,98,84,50,30.11,29.91,9,1,9,0.04
2013-10-25,46.8,37.0,32.2,36.6,30.5,24.4,100,80,44,30.32,30.11,8,1,8,0.04
2013-10-26,51.8,40.9,30.8,28.3,23.8,18.6,87,55,31,30.23,29.91,12,2,12,0.00
2013-10-27,55.4,45.0,35.1,31.5,26.2,22.0,75,49,35,30.06,29.97,9,1,9,0.00
2013-10-28,60.1,45.5,33.1,41.5,31.5,25.6,95,63,32,30.23,30.06,8,1,8,0.00
2013-10-29,61.0,49.6,34.6,43.2,31.9,27.2,94,54,31,30.32,30.20,6,1,6,0.00
2013-10-30,61.2,53.8,45.4,60.7,47.2,31.7,99,79,54,30.20,30.09,4,0,4,0.00
2013-10-31,68.8,62.6,59.6,61.4,52.8,43.9,100,72,42,30.09,29.52,17,2,19,0.04
2013-11-1,70.2,60.0,51.5,56.5,43.2,33.3,96,57,34,29.70,29.41,24,3,24,0.20
2013-11-2,54.0,49.8,44.3,41.9,36.6,31.3,75,61,46,29.94,29.64,8,1,8,0.00
2013-11-3,51.3,43.8,34.2,38.5,28.0,15.7,84,56,31,30.35,29.94,10,2,10,0.00
2013-11-4,53.8,39.1,29.2,33.1,24.3,19.6,100,60,30,30.44,30.32,5,2,8,0.00
2013-11-5,58.5,50.4,36.9,29.5,25.6,20.9,67,39,29,30.44,30.29,6,1,6,0.00
2013-11-6,71.6,59.0,43.6,43.9,39.2,28.8,86,51,32,30.29,29.91,11,2,11,0.00
2013-11-7,63.2,48.7,38.3,57.9,35.6,17.7,98,63,39,30.11,29.88,10,2,10,0.51
2013-11-8,48.4,38.8,30.1,25.4,20.7,16.1,65,49,34,30.23,30.06,12,1,12,0.00
2013-11-9,56.7,43.1,28.8,26.4,21.6,17.8,86,47,27,30.23,29.97,13,3,13,0.00
2013-11-10,50.8,44.9,34.7,29.0,22.5,18.5,55,41,29,30.23,29.97,0,0,0,0.00
2013-11-11,49.1,40.1,29.0,29.4,23.3,19.9,83,53,37,30.23,30.00,10,1,10,0.00
2013-11-12,44.3,32.4,25.0,38.2,23.9,13.3,99,72,47,30.41,30.00,13,1,13,0.04
2013-11-13,35.1,27.7,21.1,20.4,16.4,13.2,87,64,42,30.47,30.35,12,2,12,0.00
2013-11-14,47.9,36.0,25.6,20.0,15.2,12.0,64,44,29,30.35,30.14,14,4,14,0.00
2013-11-15,56.9,45.2,32.8,39.1,20.5,12.2,76,38,27,30.20,30.09,15,2,15,0.00
2013-11-16,62.3,52.9,41.9,51.7,42.0,37.3,100,69,48,30.17,30.00,9,1,9,0.00
2013-11-17,65.3,59.1,53.1,58.0,47.7,39.5,91,66,50,30.03,29.58,15,1,15,0.31
2013-11-18,56.0,49.3,40.7,48.5,29.2,19.2,85,48,31,30.03,29.70,11,0,11,0.00
2013-11-19,40.5,35.8,29.0,20.5,18.3,16.5,65,49,42,30.29,30.03,10,0,10,0.00
2013-11-20,51.8,37.1,24.7,20.6,15.4,8.2,83,46,26,30.35,30.23,13,3,13,0.00
2013-11-21,56.7,44.9,29.5,36.8,24.8,9.1,60,45,31,30.35,30.17,6,1,8,0.00
2013-11-22,60.3,53.7,40.9,60.3,50.4,36.0,100,89,55,30.17,30.03,13,0,13,0.20
2013-11-23,40.9,33.5,21.8,37.0,19.6,4.7,86,57,40,30.26,30.09,13,1,13,0.00
2013-11-24,28.3,20.6,15.5,6.0,2.7,-0.1,57,45,35,30.44,30.26,11,2,11,0.00
2013-11-25,38.9,27.4,14.0,15.9,6.6,2.1,68,43,28,30.44,30.17,9,1,9,0.00
2013-11-26,42.8,38.4,33.7,42.8,36.2,15.9,100,92,42,30.17,29.64,0,0,0,1.14
2013-11-27,41.6,31.4,22.7,41.6,27.0,9.1,100,84,56,30.09,29.67,8,0,8,0.04
2013-11-28,31.7,26.1,21.6,17.5,13.4,8.5,76,59,45,30.35,30.09,9,1,9,0.00
2013-11-29,38.9,30.5,23.6,19.2,16.3,13.6,75,56,40,30.53,30.35,8,1,8,0.04
2013-11-30,45.4,33.3,22.5,22.3,18.3,12.3,90,56,38,30.50,30.17,8,1,8,0.00
2013-12-1,46.8,39.8,30.2,26.3,21.5,17.8,69,48,37,30.17,29.91,13,1,13,0.00
2013-12-2,50.8,44.6,38.3,33.2,28.1,23.6,72,53,41,29.94,29.76,0,0,0,0.00
2013-12-3,56.9,46.4,38.2,38.5,33.1,30.3,87,62,38,29.85,29.79,8,1,9,0.00
2013-12-4,62.1,52.3,40.9,41.2,37.7,32.5,83,59,44,29.94,29.85,8,1,8,0.00
2013-12-5,67.3,60.6,50.9,64.3,51.2,40.7,100,73,50,29.91,29.85,13,1,13,0.83
2013-12-6,43.9,37.6,33.1,42.6,37.0,32.1,100,98,91,30.17,30.00,12,1,12,0.83
2013-12-7,33.5,29.2,23.4,33.2,22.3,14.1,99,76,57,30.47,30.17,0,0,0,0.83
2013-12-8,40.9,28.5,21.8,40.4,23.0,13.9,99,80,66,30.44,30.00,4,0,4,0.83
2013-12-9,47.5,40.5,32.2,47.3,37.4,23.2,100,89,68,30.09,29.91,8,1,8,0.83
2013-12-10,32.6,28.9,24.5,25.9,17.5,8.8,85,63,49,30.20,29.94,13,3,13,0.83
2013-12-11,29.9,22.6,20.2,13.4,9.8,8.3,65,58,49,30.29,30.17,0,0,0,0.83
2013-12-12,29.9,23.1,20.5,13.1,3.1,0.2,49,42,36,30.29,30.17,13,5,13,0.00
2013-12-13,37.4,29.0,20.5,12.1,7.1,1.9,44,39,34,30.20,30.14,11,3,11,0.00
2013-12-14,45.5,38.3,31.0,45.4,30.2,9.6,100,75,35,30.14,29.61,10,0,10,0.31
2013-12-15,46.1,33.0,27.5,46.1,26.0,15.9,100,76,56,29.97,29.61,17,1,17,0.04
2013-12-16,32.6,29.5,26.1,29.4,24.0,16.9,92,80,63,30.09,29.97,10,0,10,0.00
2013-12-17,38.0,34.7,29.9,37.1,30.0,19.2,98,83,63,30.00,29.88,11,0,11,0.08
2013-12-18,33.3,29.2,27.0,21.3,16.7,15.0,74,59,48,30.14,30.00,8,1,14,0.00
2013-12-19,56.9,47.5,28.3,29.5,21.3,10.4,57,36,30,30.09,30.00,15,4,15,0.00
2013-12-20,59.6,52.5,45.9,48.2,31.1,18.5,86,46,31,30.00,29.88,13,2,13,0.00
2013-12-21,66.8,60.8,56.5,63.4,50.3,43.5,100,69,56,29.91,29.67,9,1,9,0.12
2013-12-22,70.9,61.1,56.2,61.4,51.6,47.0,97,72,44,29.94,29.61,26,1,26,0.24
2013-12-23,56.3,42.4,31.5,53.7,36.1,16.6,97,79,54,30.23,29.91,10,1,10,0.28
2013-12-24,31.3,25.2,16.7,22.0,10.1,0.9,77,53,38,30.44,30.17,13,3,13,0.20
2013-12-25,35.1,24.8,14.4,13.3,7.0,1.9,64,47,35,30.41,30.14,9,1,9,0.20
2013-12-26,38.7,32.8,28.1,28.1,17.1,8.3,89,54,36,30.29,30.11,11,2,11,0.20
2013-12-27,44.3,33.7,25.4,17.5,13.6,8.5,61,44,30,30.32,30.23,13,2,13,0.20
2013-12-28,49.9,40.5,32.6,23.8,17.1,12.7,44,38,31,30.26,30.03,13,3,13,0.20
2013-12-29,49.3,44.3,38.9,49.3,40.3,17.4,100,89,38,30.03,29.61,9,1,9,0.67
2013-12-30,41.4,31.6,25.6,39.9,26.0,16.1,95,80,64,30.11,29.82,0,0,0,0.20
2013-12-31,28.6,26.9,24.1,25.1,14.7,10.3,87,60,48,30.26,30.03,0,0,0,0.20
2014-1-1,45.7,32.5,22.1,19.6,15.6,12.2,74,51,32,30.26,29.97,6,1,9,0.20
2014-1-2,35.1,29.2,14.2,34.8,23.8,6.4,99,81,57,29.97,29.61,8,1,8,0.00